Time;durP1;ratioP1;P1;durP2;ratioP2;P2;SDS_P1;SDS_P2;PMS_P1;PMS_P2;Temp;Humidity;BMP_temperature;BMP_pressure;BME280_temperature;BME280_humidity;BME280_pressure;Samples;Min_cycle;Max_cycle;Signal;HPM_P1;HPM_P2
2023/03/16 00:02:02;;;;;;;5.23;2.70;;;2.60;99.90;;;;;;5037891;28;20820;-65
2023/03/16 00:04:29;;;;;;;3.00;2.00;;;2.60;99.90;;;;;;5037947;28;20518;-66
2023/03/16 00:06:56;;;;;;;7.23;3.40;;;2.60;99.90;;;;;;5037792;28;20455;-66
2023/03/16 00:09:29;;;;;;;3.10;2.40;;;2.60;99.90;;;;;;5038169;28;20459;-65
2023/03/16 00:11:56;;;;;;;5.20;3.20;;;2.50;99.90;;;;;;5038378;28;20448;-65
2023/03/16 00:14:23;;;;;;;5.30;2.37;;;2.50;99.90;;;;;;5037873;28;20555;-66
2023/03/16 00:16:52;;;;;;;10.83;3.30;;;2.50;99.90;;;;;;5038040;28;20465;-65
2023/03/16 00:19:21;;;;;;;10.80;2.83;;;2.60;99.90;;;;;;5037628;28;20459;-65
2023/03/16 00:21:48;;;;;;;5.60;2.80;;;2.50;99.90;;;;;;5037581;28;20490;-65
2023/03/16 00:24:17;;;;;;;5.73;2.40;;;2.60;99.90;;;;;;5037929;28;20948;-64
2023/03/16 00:26:44;;;;;;;4.73;2.23;;;2.50;99.90;;;;;;5038493;28;20540;-65
2023/03/16 00:29:11;;;;;;;3.10;2.37;;;2.50;99.90;;;;;;5038621;28;20464;-65
2023/03/16 00:31:38;;;;;;;8.47;3.00;;;2.50;99.90;;;;;;5038357;28;20479;-64
2023/03/16 00:34:06;;;;;;;5.10;2.30;;;2.40;99.90;;;;;;5038622;28;20811;-66
2023/03/16 00:36:36;;;;;;;5.00;2.40;;;2.50;99.90;;;;;;5037820;28;20456;-66
2023/03/16 00:39:04;;;;;;;5.07;2.77;;;2.40;99.90;;;;;;5038525;28;20779;-65
2023/03/16 00:41:30;;;;;;;2.70;2.23;;;2.40;99.90;;;;;;5037589;28;20547;-65
2023/03/16 00:43:57;;;;;;;7.73;2.40;;;2.40;99.90;;;;;;5037743;28;20555;-65
2023/03/16 00:46:25;;;;;;;7.67;2.80;;;2.50;99.90;;;;;;5037905;28;20905;-65
2023/03/16 00:48:52;;;;;;;6.83;3.00;;;2.40;99.90;;;;;;5037279;28;20456;-65
2023/03/16 00:51:21;;;;;;;7.10;3.00;;;2.30;99.90;;;;;;5037960;28;20444;-66
2023/03/16 00:53:49;;;;;;;7.97;3.30;;;2.30;99.90;;;;;;5037673;28;20570;-66
2023/03/16 00:56:17;;;;;;;5.53;2.60;;;2.30;99.90;;;;;;5037458;28;20466;-66
2023/03/16 00:58:44;;;;;;;6.60;3.10;;;2.30;99.90;;;;;;5037422;28;20900;-66
2023/03/16 01:01:13;;;;;;;8.90;3.87;;;2.20;99.90;;;;;;5037076;28;20479;-66
2023/03/16 01:03:40;;;;;;;11.33;2.40;;;2.20;99.90;;;;;;5037319;28;20460;-66
2023/03/16 01:06:09;;;;;;;6.90;2.50;;;2.30;99.90;;;;;;5037688;28;20470;-66
2023/03/16 01:08:37;;;;;;;6.20;2.80;;;2.30;99.90;;;;;;5037303;28;20830;-66
2023/03/16 01:11:05;;;;;;;2.00;1.73;;;2.30;99.90;;;;;;5037286;28;20452;-67
2023/03/16 01:13:32;;;;;;;4.50;2.50;;;2.30;99.90;;;;;;5037872;28;20466;-65
2023/03/16 01:16:02;;;;;;;6.37;2.60;;;2.30;99.90;;;;;;5037393;28;20566;-64
2023/03/16 01:18:33;;;;;;;4.43;2.47;;;2.30;99.90;;;;;;5037955;28;20464;-65
2023/03/16 01:21:00;;;;;;;5.60;2.73;;;2.30;99.90;;;;;;5037287;28;20511;-66
2023/03/16 01:23:29;;;;;;;3.17;2.23;;;2.30;99.90;;;;;;5037629;28;20514;-65
2023/03/16 01:25:57;;;;;;;4.33;2.20;;;2.20;99.90;;;;;;5037328;28;20467;-66
2023/03/16 01:28:27;;;;;;;5.37;2.57;;;2.10;99.90;;;;;;5036962;28;20491;-66
2023/03/16 01:31:01;;;;;;;8.53;2.83;;;2.10;99.90;;;;;;5037584;28;20767;-66
2023/03/16 01:33:29;;;;;;;4.37;2.30;;;2.10;99.90;;;;;;5036619;28;20531;-66
2023/03/16 01:35:57;;;;;;;5.10;2.43;;;2.00;99.90;;;;;;5036901;28;20543;-66
2023/03/16 01:38:24;;;;;;;4.13;2.50;;;2.00;99.90;;;;;;5037453;28;20456;-65
2023/03/16 01:40:52;;;;;;;6.27;2.30;;;2.00;99.90;;;;;;5036274;28;20495;-64
2023/03/16 01:43:23;;;;;;;5.57;2.70;;;2.10;99.90;;;;;;5036219;28;20543;-66
2023/03/16 01:46:26;;;;;;;5.90;2.63;;;2.00;99.90;;;;;;5036666;28;20452;-65
2023/03/16 01:49:04;;;;;;;7.90;2.90;;;2.10;99.90;;;;;;5036487;28;20440;-66
2023/03/16 01:51:36;;;;;;;4.63;2.33;;;2.10;99.90;;;;;;5036131;28;20450;-66
2023/03/16 01:54:07;;;;;;;4.17;2.53;;;2.10;99.90;;;;;;5036353;28;20444;-65
2023/03/16 01:56:40;;;;;;;5.20;2.67;;;2.00;99.90;;;;;;5036684;28;20455;-66
2023/03/16 01:59:14;;;;;;;8.60;3.00;;;2.10;99.90;;;;;;5035777;28;20445;-65
2023/03/16 02:01:41;;;;;;;5.20;2.40;;;2.10;99.90;;;;;;5035992;28;20479;-65
2023/03/16 02:04:21;;;;;;;8.93;2.80;;;2.10;99.90;;;;;;5035725;28;20555;-66
2023/03/16 02:06:49;;;;;;;3.53;2.27;;;2.10;99.90;;;;;;5036059;28;20444;-65
2023/03/16 02:09:18;;;;;;;3.70;2.67;;;2.10;99.90;;;;;;5036775;28;20539;-65
2023/03/16 02:11:46;;;;;;;2.23;2.00;;;2.10;99.90;;;;;;5036235;28;20950;-64
2023/03/16 02:14:14;;;;;;;4.43;2.37;;;2.10;99.90;;;;;;5035878;28;21561;-66
2023/03/16 02:16:42;;;;;;;5.80;2.43;;;2.10;99.90;;;;;;5036114;28;20448;-65
2023/03/16 02:19:13;;;;;;;2.90;2.10;;;2.10;99.90;;;;;;5035885;28;20474;-65
2023/03/16 02:21:49;;;;;;;6.27;3.40;;;2.10;99.90;;;;;;5036840;28;20866;-65
2023/03/16 02:24:15;;;;;;;6.10;2.40;;;2.10;99.90;;;;;;5036475;28;20456;-66
2023/03/16 02:26:47;;;;;;;3.10;2.23;;;2.10;99.90;;;;;;5035868;28;20496;-66
2023/03/16 02:29:28;;;;;;;5.10;2.70;;;2.10;99.90;;;;;;5036564;28;20448;-66
2023/03/16 02:31:57;;;;;;;5.17;3.00;;;2.10;99.90;;;;;;5035965;28;20452;-65
2023/03/16 02:34:26;;;;;;;4.50;2.87;;;2.10;99.90;;;;;;5035466;28;20462;-66
2023/03/16 02:36:54;;;;;;;5.30;2.53;;;2.10;99.90;;;;;;5035193;28;20928;-66
2023/03/16 02:39:21;;;;;;;5.70;2.50;;;2.00;99.90;;;;;;5035351;28;20459;-66
2023/03/16 02:41:48;;;;;;;3.10;2.13;;;2.00;99.90;;;;;;5035239;28;20526;-66
2023/03/16 02:44:17;;;;;;;4.83;2.30;;;2.00;99.90;;;;;;5035334;28;20467;-66
2023/03/16 02:46:47;;;;;;;6.67;2.80;;;2.00;99.90;;;;;;5035703;28;20559;-66
2023/03/16 02:49:19;;;;;;;3.73;2.40;;;2.10;99.90;;;;;;5035759;28;20546;-66
2023/03/16 02:51:46;;;;;;;7.20;2.60;;;2.00;99.90;;;;;;5035605;28;20436;-65
2023/03/16 02:54:13;;;;;;;3.20;2.07;;;2.00;99.90;;;;;;5035570;28;20456;-65
2023/03/16 02:56:40;;;;;;;5.60;2.30;;;2.00;99.90;;;;;;5035522;28;20759;-66
2023/03/16 02:59:08;;;;;;;10.63;2.90;;;1.90;99.90;;;;;;5035704;28;20545;-66
2023/03/16 03:01:35;;;;;;;4.07;2.70;;;1.90;99.90;;;;;;5035769;28;20832;-65
2023/03/16 03:04:02;;;;;;;4.67;2.10;;;1.90;99.90;;;;;;5035567;28;20459;-66
2023/03/16 03:06:31;;;;;;;7.10;2.37;;;1.90;99.90;;;;;;5035183;28;20468;-66
2023/03/16 03:08:58;;;;;;;5.43;2.60;;;1.90;99.90;;;;;;5035502;28;20874;-66
2023/03/16 03:11:25;;;;;;;7.50;2.63;;;1.90;99.90;;;;;;5035283;28;20459;-65
2023/03/16 03:13:52;;;;;;;6.40;2.47;;;1.90;99.90;;;;;;5034881;28;21017;-66
2023/03/16 03:16:18;;;;;;;4.50;2.37;;;1.90;99.90;;;;;;5048967;28;20459;-66
2023/03/16 03:18:45;;;;;;;8.07;3.87;;;1.90;99.90;;;;;;5052366;28;20542;-66
2023/03/16 03:21:12;;;;;;;3.07;2.10;;;1.90;99.90;;;;;;5034915;28;20451;-65
2023/03/16 03:23:41;;;;;;;4.40;2.20;;;1.90;99.90;;;;;;5034622;28;20467;-64
2023/03/16 03:26:08;;;;;;;6.00;2.50;;;1.90;99.90;;;;;;5034710;28;20455;-65
2023/03/16 03:28:34;;;;;;;5.00;1.97;;;1.90;99.90;;;;;;5035219;28;20469;-65
2023/03/16 03:31:01;;;;;;;4.43;2.33;;;1.90;99.90;;;;;;5035605;28;20868;-64
2023/03/16 03:33:28;;;;;;;7.40;2.63;;;1.80;99.90;;;;;;5034601;28;20453;-66
2023/03/16 03:35:56;;;;;;;4.70;2.27;;;1.80;99.90;;;;;;5035105;28;20466;-65
2023/03/16 03:38:23;;;;;;;3.73;2.43;;;1.80;99.90;;;;;;5035717;28;20478;-64
2023/03/16 03:40:52;;;;;;;6.70;2.80;;;1.90;99.90;;;;;;5035068;28;20467;-65
2023/03/16 03:43:20;;;;;;;6.63;2.50;;;1.90;99.90;;;;;;5034628;28;20972;-64
2023/03/16 03:45:47;;;;;;;3.67;2.63;;;1.90;99.90;;;;;;5034477;28;20992;-64
2023/03/16 03:48:13;;;;;;;3.43;2.30;;;1.90;99.90;;;;;;5034505;28;20456;-65
2023/03/16 03:50:40;;;;;;;8.67;2.90;;;1.90;99.90;;;;;;5034719;28;20555;-65
2023/03/16 03:53:07;;;;;;;11.60;3.07;;;2.00;99.90;;;;;;5034317;28;20495;-65
2023/03/16 03:55:34;;;;;;;3.80;2.73;;;2.00;99.90;;;;;;5034475;28;20466;-64
2023/03/16 03:58:02;;;;;;;3.20;2.30;;;1.90;99.90;;;;;;5034286;28;20925;-65
2023/03/16 04:00:29;;;;;;;4.63;2.50;;;1.80;99.90;;;;;;5034324;28;20486;-65
2023/03/16 04:02:56;;;;;;;6.30;2.20;;;1.80;99.90;;;;;;5034265;28;20476;-65
2023/03/16 04:05:26;;;;;;;6.27;2.77;;;1.80;99.90;;;;;;5033957;28;20460;-65
2023/03/16 04:07:56;;;;;;;7.20;2.33;;;1.70;99.90;;;;;;5034243;28;20548;-65
2023/03/16 04:10:23;;;;;;;9.30;2.60;;;1.70;99.90;;;;;;5034356;28;20555;-65
2023/03/16 04:12:50;;;;;;;5.20;2.40;;;1.70;99.90;;;;;;5034289;28;20560;-65
2023/03/16 04:15:19;;;;;;;1.80;1.70;;;1.60;99.90;;;;;;5034277;28;20479;-65
2023/03/16 04:17:46;;;;;;;4.43;1.93;;;1.70;99.90;;;;;;5034336;28;20456;-66
2023/03/16 04:20:14;;;;;;;9.57;2.90;;;1.70;99.90;;;;;;5034068;28;20460;-65
2023/03/16 04:22:41;;;;;;;2.70;2.03;;;1.60;99.90;;;;;;5034844;28;20487;-65
2023/03/16 04:25:09;;;;;;;5.20;2.60;;;1.70;99.90;;;;;;5037610;28;20936;-62
2023/03/16 04:27:36;;;;;;;8.53;2.70;;;1.60;99.90;;;;;;5037298;28;20460;-64
2023/03/16 04:30:04;;;;;;;2.67;1.83;;;1.60;99.90;;;;;;5037583;28;20460;-65
2023/03/16 04:32:32;;;;;;;6.70;2.37;;;1.60;99.90;;;;;;5037529;28;20466;-65
2023/03/16 04:35:00;;;;;;;5.50;2.20;;;1.50;99.90;;;;;;5037958;28;20491;-64
2023/03/16 04:37:27;;;;;;;8.90;3.40;;;1.50;99.90;;;;;;5037917;28;20460;-63
2023/03/16 04:39:54;;;;;;;2.43;1.90;;;1.60;99.90;;;;;;5037259;28;20456;-65
2023/03/16 04:42:21;;;;;;;5.13;2.77;;;1.60;99.90;;;;;;5037407;28;20566;-65
2023/03/16 04:44:48;;;;;;;5.60;2.20;;;1.60;99.90;;;;;;5037398;28;20794;-65
2023/03/16 04:47:17;;;;;;;4.77;2.27;;;1.60;99.90;;;;;;5037413;28;20547;-65
2023/03/16 04:49:45;;;;;;;8.90;2.40;;;1.60;99.90;;;;;;5036933;28;20584;-65
2023/03/16 04:52:12;;;;;;;8.30;2.40;;;1.60;99.90;;;;;;5037176;28;20480;-65
2023/03/16 04:54:39;;;;;;;6.80;2.80;;;1.70;99.90;;;;;;5036974;28;20951;-65
2023/03/16 04:57:07;;;;;;;4.20;2.10;;;1.70;99.90;;;;;;5037201;28;20555;-65
2023/03/16 04:59:34;;;;;;;5.53;2.40;;;1.70;99.90;;;;;;5037249;28;20793;-65
2023/03/16 05:02:01;;;;;;;4.90;2.43;;;1.70;99.90;;;;;;5036863;28;20490;-64
2023/03/16 05:04:27;;;;;;;3.83;2.30;;;1.70;99.90;;;;;;5036701;28;20488;-62
2023/03/16 05:06:56;;;;;;;5.17;2.47;;;1.80;99.90;;;;;;5036635;28;20976;-65
2023/03/16 05:09:22;;;;;;;3.67;2.37;;;1.80;99.90;;;;;;5036968;28;20543;-63
2023/03/16 05:11:49;;;;;;;5.13;2.27;;;1.70;99.90;;;;;;5036916;28;20464;-65
2023/03/16 05:14:16;;;;;;;6.33;2.47;;;1.80;99.90;;;;;;5036148;28;20483;-64
2023/03/16 05:16:43;;;;;;;5.30;2.53;;;1.80;99.90;;;;;;5036738;28;20531;-65
2023/03/16 05:19:10;;;;;;;3.10;2.10;;;1.70;99.90;;;;;;5037064;28;20931;-65
2023/03/16 05:21:38;;;;;;;12.00;3.67;;;1.70;99.90;;;;;;5036817;28;20559;-65
2023/03/16 05:24:07;;;;;;;10.87;2.53;;;1.60;99.90;;;;;;5036299;28;20484;-66
2023/03/16 05:26:34;;;;;;;3.50;2.70;;;1.70;99.90;;;;;;5036652;28;20547;-64
2023/03/16 05:29:01;;;;;;;4.93;3.00;;;1.70;99.90;;;;;;5036112;28;20543;-65
2023/03/16 05:31:31;;;;;;;2.90;2.33;;;1.70;99.90;;;;;;5036332;28;20486;-65
2023/03/16 05:33:58;;;;;;;5.93;2.33;;;1.70;99.90;;;;;;5035274;28;20456;-64
2023/03/16 05:36:25;;;;;;;6.80;2.50;;;1.70;99.90;;;;;;5035641;28;20499;-65
2023/03/16 05:38:52;;;;;;;4.20;2.40;;;1.80;99.90;;;;;;5036283;28;20455;-66
2023/03/16 05:41:21;;;;;;;10.67;3.33;;;1.80;99.90;;;;;;5035999;28;20475;-66
2023/03/16 05:43:48;;;;;;;6.37;2.67;;;1.80;99.90;;;;;;5036191;28;20534;-65
2023/03/16 05:46:15;;;;;;;6.23;2.30;;;1.80;99.90;;;;;;5035830;28;20466;-65
2023/03/16 05:48:42;;;;;;;4.90;2.60;;;1.80;99.90;;;;;;5036045;28;20459;-65
2023/03/16 05:51:09;;;;;;;8.93;3.00;;;1.70;99.90;;;;;;5035937;28;20849;-65
2023/03/16 05:53:35;;;;;;;5.27;2.90;;;1.80;99.90;;;;;;5035874;28;20913;-65
2023/03/16 05:56:02;;;;;;;3.53;3.00;;;1.80;99.90;;;;;;5035924;28;20456;-66
2023/03/16 05:58:32;;;;;;;8.67;3.27;;;1.70;99.90;;;;;;5035687;28;20924;-65
2023/03/16 06:01:01;;;;;;;7.37;3.20;;;1.70;99.90;;;;;;5036051;28;20879;-65
2023/03/16 06:03:28;;;;;;;2.97;2.30;;;1.80;99.90;;;;;;5035606;28;20482;-65
2023/03/16 06:05:54;;;;;;;4.10;2.80;;;1.80;99.90;;;;;;5035469;28;20492;-66
2023/03/16 06:08:21;;;;;;;7.80;2.70;;;1.80;99.90;;;;;;5035879;28;20456;-65
2023/03/16 06:10:48;;;;;;;7.27;3.40;;;1.70;99.90;;;;;;5035868;28;20460;-66
2023/03/16 06:13:15;;;;;;;6.70;2.10;;;1.80;99.90;;;;;;5035762;28;20985;-64
2023/03/16 06:15:44;;;;;;;6.30;3.10;;;1.80;99.90;;;;;;5035688;28;20825;-65
2023/03/16 06:18:10;;;;;;;6.73;2.80;;;1.70;99.90;;;;;;5035588;28;20471;-64
2023/03/16 06:20:37;;;;;;;8.07;2.90;;;1.70;99.90;;;;;;5035726;28;20925;-63
2023/03/16 06:23:04;;;;;;;5.50;2.73;;;1.70;99.90;;;;;;5035679;28;20578;-66
2023/03/16 06:25:31;;;;;;;4.60;2.73;;;1.80;99.90;;;;;;5035681;28;20460;-66
2023/03/16 06:27:58;;;;;;;4.93;2.50;;;1.80;99.90;;;;;;5035421;28;20462;-66
2023/03/16 06:30:25;;;;;;;5.50;3.20;;;1.80;99.90;;;;;;5035606;28;20550;-66
2023/03/16 06:32:53;;;;;;;6.00;3.33;;;1.80;99.90;;;;;;5035345;28;20538;-65
2023/03/16 06:35:20;;;;;;;4.63;3.10;;;1.80;99.90;;;;;;5035312;28;20452;-65
2023/03/16 06:37:47;;;;;;;10.23;3.70;;;1.90;99.90;;;;;;5034995;28;20462;-65
2023/03/16 06:40:14;;;;;;;9.17;3.70;;;1.90;99.90;;;;;;5035291;28;20535;-66
2023/03/16 06:42:40;;;;;;;6.63;3.20;;;2.00;99.90;;;;;;5035182;28;20933;-66
2023/03/16 06:45:09;;;;;;;3.43;2.63;;;2.10;99.90;;;;;;5034341;28;20543;-66
2023/03/16 06:47:35;;;;;;;5.07;2.83;;;2.10;99.90;;;;;;5035530;28;20470;-65
2023/03/16 06:50:04;;;;;;;7.33;3.37;;;2.20;99.90;;;;;;5034731;28;20551;-66
2023/03/16 06:52:31;;;;;;;6.93;2.50;;;2.10;99.90;;;;;;5035584;28;20555;-66
2023/03/16 06:54:58;;;;;;;13.53;3.37;;;2.20;99.90;;;;;;5035808;28;20497;-65
2023/03/16 06:57:25;;;;;;;7.97;3.00;;;2.30;99.90;;;;;;5053345;28;20463;-65
2023/03/16 06:59:52;;;;;;;4.07;2.40;;;2.30;99.90;;;;;;5055185;28;20521;-65
2023/03/16 07:02:22;;;;;;;7.53;3.07;;;2.40;99.90;;;;;;5054403;28;20459;-65
2023/03/16 07:04:49;;;;;;;6.37;3.03;;;2.50;99.90;;;;;;5054769;28;20542;-65
2023/03/16 07:07:18;;;;;;;7.53;3.33;;;2.60;99.90;;;;;;5053364;28;20459;-66
2023/03/16 07:09:45;;;;;;;4.53;3.00;;;2.70;99.90;;;;;;5054732;28;20470;-66
2023/03/16 07:12:12;;;;;;;7.23;3.10;;;2.80;99.90;;;;;;5054751;28;20460;-66
2023/03/16 07:14:40;;;;;;;7.13;2.97;;;2.80;99.90;;;;;;5054812;28;20594;-66
2023/03/16 07:17:07;;;;;;;3.90;2.90;;;2.90;99.90;;;;;;5046384;28;20761;-65
2023/03/16 07:19:34;;;;;;;9.43;3.80;;;2.90;99.90;;;;;;5034824;28;20974;-65
2023/03/16 07:22:02;;;;;;;4.93;2.90;;;3.00;99.90;;;;;;5034970;28;20547;-65
2023/03/16 07:24:31;;;;;;;4.50;2.67;;;3.10;99.90;;;;;;5034754;28;20476;-66
2023/03/16 07:26:58;;;;;;;7.53;3.20;;;3.20;99.90;;;;;;5035238;28;20460;-66
2023/03/16 07:29:25;;;;;;;12.93;3.17;;;3.20;99.90;;;;;;5034892;28;20466;-66
2023/03/16 07:31:52;;;;;;;4.97;2.40;;;3.20;99.90;;;;;;5035261;28;20484;-66
2023/03/16 07:34:19;;;;;;;4.23;2.20;;;3.30;99.90;;;;;;5036965;28;20484;-65
2023/03/16 07:36:47;;;;;;;4.80;2.20;;;3.40;99.90;;;;;;5036618;28;20492;-67
2023/03/16 07:39:16;;;;;;;6.77;2.33;;;3.50;99.90;;;;;;5036865;28;20456;-65
2023/03/16 07:41:45;;;;;;;5.00;2.00;;;3.60;99.90;;;;;;5035657;28;20471;-65
2023/03/16 07:44:13;;;;;;;4.60;2.80;;;3.60;99.90;;;;;;5035211;28;20480;-65
2023/03/16 07:46:40;;;;;;;7.40;2.90;;;3.60;99.90;;;;;;5034844;28;20924;-65
2023/03/16 07:49:08;;;;;;;5.97;2.67;;;3.70;99.90;;;;;;5034432;28;20960;-65
2023/03/16 07:51:35;;;;;;;5.20;2.83;;;3.80;99.90;;;;;;5034519;28;20518;-65
2023/03/16 07:54:03;;;;;;;4.20;2.13;;;3.80;99.90;;;;;;5034399;28;20510;-66
2023/03/16 07:56:30;;;;;;;5.80;2.40;;;3.90;99.90;;;;;;5035376;28;20451;-66
2023/03/16 07:58:58;;;;;;;5.10;2.33;;;4.00;99.90;;;;;;5037209;28;20469;-66
2023/03/16 08:01:25;;;;;;;4.93;2.40;;;4.10;99.90;;;;;;5038358;28;20460;-65
2023/03/16 08:03:52;;;;;;;3.70;2.03;;;4.20;99.90;;;;;;5038213;28;20575;-64
2023/03/16 08:06:20;;;;;;;6.77;2.50;;;4.30;99.90;;;;;;5038908;28;20464;-66
2023/03/16 08:08:46;;;;;;;7.00;2.33;;;4.30;99.90;;;;;;5038328;28;20466;-66
2023/03/16 08:11:14;;;;;;;4.90;2.20;;;4.40;99.90;;;;;;5038604;28;20955;-65
2023/03/16 08:13:42;;;;;;;8.13;2.30;;;4.40;99.90;;;;;;5037950;28;20488;-65
2023/03/16 08:16:12;;;;;;;4.30;2.70;;;4.50;99.90;;;;;;5038053;28;20488;-66
2023/03/16 08:18:40;;;;;;;5.23;2.07;;;4.60;99.90;;;;;;5038605;28;20909;-66
2023/03/16 08:21:08;;;;;;;3.20;2.20;;;4.60;99.90;;;;;;5038701;28;20494;-68
2023/03/16 08:23:35;;;;;;;3.07;2.10;;;4.70;99.90;;;;;;5037770;28;20480;-69
2023/03/16 08:26:07;;;;;;;5.00;2.67;;;4.70;99.90;;;;;;5037758;28;21002;-66
2023/03/16 08:28:35;;;;;;;9.60;2.50;;;4.70;99.90;;;;;;5038091;28;20448;-66
2023/03/16 08:31:02;;;;;;;5.50;2.17;;;4.70;99.90;;;;;;5038017;28;20781;-67
2023/03/16 08:33:30;;;;;;;5.40;2.23;;;4.70;99.90;;;;;;5038371;28;20458;-66
2023/03/16 08:35:57;;;;;;;3.63;1.80;;;4.80;99.90;;;;;;5037331;28;20456;-66
2023/03/16 08:38:24;;;;;;;5.03;2.20;;;4.90;99.90;;;;;;5037385;28;20464;-66
2023/03/16 08:40:51;;;;;;;6.90;2.63;;;4.90;99.90;;;;;;5037400;28;20559;-67
2023/03/16 08:43:18;;;;;;;6.87;2.47;;;4.90;99.90;;;;;;5037296;28;20476;-66
2023/03/16 08:45:46;;;;;;;5.10;1.77;;;5.00;99.90;;;;;;5037307;28;20494;-67
2023/03/16 08:48:13;;;;;;;7.70;1.77;;;5.10;99.90;;;;;;5037288;28;20460;-66
2023/03/16 08:50:43;;;;;;;6.63;2.23;;;5.10;99.90;;;;;;5037053;28;20611;-66
2023/03/16 08:53:10;;;;;;;4.47;2.07;;;5.20;99.90;;;;;;5037350;28;20456;-66
2023/03/16 08:55:39;;;;;;;6.50;2.43;;;5.30;99.90;;;;;;5036766;28;20547;-66
2023/03/16 08:58:06;;;;;;;2.90;2.17;;;5.30;99.90;;;;;;5036835;28;20495;-67
2023/03/16 09:00:32;;;;;;;7.23;2.30;;;5.40;99.90;;;;;;5036777;28;20848;-68
2023/03/16 09:03:01;;;;;;;7.90;2.40;;;5.50;99.90;;;;;;5036807;28;20809;-67
2023/03/16 09:05:29;;;;;;;4.00;2.30;;;5.60;99.90;;;;;;5036618;28;20468;-66
2023/03/16 09:07:58;;;;;;;6.33;2.10;;;5.60;99.90;;;;;;5036330;28;20933;-66
2023/03/16 09:10:26;;;;;;;6.10;2.10;;;5.60;99.90;;;;;;5036466;28;20778;-65
2023/03/16 09:12:53;;;;;;;7.63;1.83;;;5.70;99.90;;;;;;5036681;28;20470;-65
2023/03/16 09:15:21;;;;;;;2.83;2.10;;;5.80;99.90;;;;;;5036118;28;21018;-67
2023/03/16 09:17:49;;;;;;;7.60;2.23;;;5.80;99.90;;;;;;5036238;28;20466;-67
2023/03/16 09:20:17;;;;;;;5.87;2.13;;;5.90;99.90;;;;;;5036166;28;20506;-66
2023/03/16 09:22:44;;;;;;;8.00;2.30;;;5.90;99.90;;;;;;5036233;28;20873;-67
2023/03/16 09:25:13;;;;;;;6.20;1.80;;;5.90;99.90;;;;;;5035988;28;20476;-66
2023/03/16 09:27:40;;;;;;;6.70;1.60;;;6.00;99.90;;;;;;5035953;28;20534;-66
2023/03/16 09:30:09;;;;;;;4.70;1.77;;;6.00;99.90;;;;;;5036016;28;20493;-66
2023/03/16 09:32:36;;;;;;;3.30;1.33;;;6.10;99.90;;;;;;5036102;28;20776;-66
2023/03/16 09:35:05;;;;;;;3.60;1.50;;;6.20;99.90;;;;;;5035980;28;20797;-66
2023/03/16 09:37:31;;;;;;;9.83;1.80;;;6.20;99.90;;;;;;5035675;28;20460;-66
2023/03/16 09:39:58;;;;;;;5.80;1.60;;;6.20;99.90;;;;;;5036235;28;20499;-66
2023/03/16 09:42:33;;;;;;;3.67;1.23;;;6.30;99.90;;;;;;5035531;28;20468;-66
2023/03/16 09:45:09;;;;;;;6.50;1.87;;;6.30;99.90;;;;;;5035327;28;20554;-66
2023/03/16 09:47:37;;;;;;;3.83;1.80;;;6.40;99.90;;;;;;5035242;28;20540;-66
2023/03/16 09:50:07;;;;;;;6.40;2.00;;;6.40;99.40;;;;;;5035764;28;20464;-67
2023/03/16 09:52:40;;;;;;;9.33;2.20;;;6.30;98.30;;;;;;5035450;28;20939;-66
2023/03/16 09:55:16;;;;;;;9.17;2.33;;;6.40;98.20;;;;;;5035575;28;20948;-67
2023/03/16 09:57:46;;;;;;;3.70;2.13;;;6.50;97.70;;;;;;5035698;28;20440;-66
2023/03/16 10:00:20;;;;;;;2.60;1.53;;;6.60;98.50;;;;;;5035659;28;20554;-67
2023/03/16 10:03:05;;;;;;;4.47;1.87;;;6.70;99.10;;;;;;5018477;28;20491;-66
2023/03/16 10:05:33;;;;;;;4.73;1.40;;;6.70;95.90;;;;;;5035131;28;20529;-67
2023/03/16 10:08:12;;;;;;;6.83;1.57;;;6.80;96.80;;;;;;5036014;28;20456;-67
2023/03/16 10:11:03;;;;;;;2.43;1.50;;;6.80;97.30;;;;;;5035717;28;20474;-66
2023/03/16 10:13:37;;;;;;;4.20;1.53;;;6.90;97.20;;;;;;5035073;28;20944;-67
2023/03/16 10:16:09;;;;;;;5.20;1.80;;;6.90;95.60;;;;;;5035220;28;20964;-67
2023/03/16 10:18:43;;;;;;;3.67;1.20;;;7.00;95.40;;;;;;5035231;28;20916;-67
2023/03/16 10:21:14;;;;;;;3.50;1.40;;;7.00;92.20;;;;;;5034758;28;20440;-66
2023/03/16 10:23:42;;;;;;;3.50;1.20;;;7.00;90.70;;;;;;5035099;28;20494;-66
2023/03/16 10:26:14;;;;;;;2.30;1.27;;;7.00;88.90;;;;;;5035054;28;20460;-66
2023/03/16 10:28:44;;;;;;;2.70;1.33;;;7.10;86.80;;;;;;5035493;28;20455;-67
2023/03/16 10:31:12;;;;;;;4.27;1.60;;;7.10;81.10;;;;;;5035116;28;20444;-67
2023/03/16 10:33:40;;;;;;;4.80;1.60;;;7.00;79.80;;;;;;5034586;28;20551;-67
2023/03/16 10:36:14;;;;;;;5.57;1.93;;;7.00;79.70;;;;;;5034245;28;20542;-66
2023/03/16 10:38:45;;;;;;;4.60;1.60;;;7.10;80.80;;;;;;5035247;28;20535;-66
2023/03/16 10:41:27;;;;;;;5.73;1.47;;;7.10;78.00;;;;;;5035046;28;20447;-67
2023/03/16 10:43:57;;;;;;;3.57;1.30;;;7.10;77.50;;;;;;5034507;28;20482;-66
2023/03/16 10:46:26;;;;;;;2.63;1.13;;;7.10;77.70;;;;;;5034756;28;20518;-66
2023/03/16 10:48:58;;;;;;;2.23;1.30;;;7.20;78.30;;;;;;5034602;28;20546;-66
2023/03/16 10:51:28;;;;;;;1.87;1.23;;;7.30;73.70;;;;;;5034704;28;20558;-67
2023/03/16 10:54:01;;;;;;;5.37;1.33;;;7.30;71.30;;;;;;5034409;28;20459;-66
2023/03/16 10:56:35;;;;;;;2.77;1.33;;;7.30;66.50;;;;;;5034522;28;20498;-66
2023/03/16 10:59:14;;;;;;;2.30;1.40;;;7.30;66.00;;;;;;5034598;28;20509;-65
2023/03/16 11:01:47;;;;;;;3.97;1.70;;;7.30;67.80;;;;;;5034525;28;20539;-66
2023/03/16 11:04:16;;;;;;;5.43;1.80;;;7.40;67.70;;;;;;5035544;28;20526;-67
2023/03/16 11:06:49;;;;;;;1.73;1.53;;;7.50;66.00;;;;;;5034050;28;20464;-67
2023/03/16 11:09:22;;;;;;;1.80;1.20;;;7.50;65.90;;;;;;5034330;28;20543;-67
2023/03/16 11:11:50;;;;;;;3.03;1.53;;;7.60;64.50;;;;;;5034181;28;20444;-67
2023/03/16 11:14:21;;;;;;;3.23;1.60;;;7.60;62.70;;;;;;5033983;28;20471;-67
2023/03/16 11:16:53;;;;;;;2.57;1.60;;;7.60;61.50;;;;;;5034383;28;20464;-67
2023/03/16 11:19:24;;;;;;;2.33;1.40;;;7.70;63.60;;;;;;5034368;28;20539;-67
2023/03/16 11:21:56;;;;;;;3.93;1.40;;;7.70;60.80;;;;;;5034219;28;20445;-62
2023/03/16 11:24:29;;;;;;;4.43;1.40;;;7.80;63.00;;;;;;5034030;28;20468;-63
2023/03/16 11:26:58;;;;;;;1.80;1.30;;;8.00;58.60;;;;;;5034558;28;20531;-62
2023/03/16 11:29:35;;;;;;;3.80;1.70;;;8.10;60.90;;;;;;5034197;28;20996;-62
2023/03/16 11:32:06;;;;;;;4.80;1.67;;;8.20;59.00;;;;;;5035838;28;20535;-63
2023/03/16 11:34:35;;;;;;;4.60;1.73;;;8.20;57.70;;;;;;5038553;28;20471;-64
2023/03/16 11:37:12;;;;;;;4.80;1.77;;;8.20;58.50;;;;;;5039473;28;20912;-63
2023/03/16 11:39:48;;;;;;;3.03;1.60;;;8.20;59.00;;;;;;5038697;28;20450;-64
2023/03/16 11:42:30;;;;;;;4.43;1.57;;;8.30;57.80;;;;;;5041014;28;20444;-63
2023/03/16 11:45:06;;;;;;;3.40;1.70;;;8.30;57.40;;;;;;5039829;28;20479;-65
2023/03/16 11:48:02;;;;;;;3.63;1.67;;;8.40;56.20;;;;;;5038847;28;20509;-63
2023/03/16 11:50:37;;;;;;;2.67;1.30;;;8.60;57.40;;;;;;5038244;28;20458;-62
2023/03/16 11:53:17;;;;;;;4.67;1.53;;;8.70;57.30;;;;;;5038261;28;20439;-61
2023/03/16 11:55:51;;;;;;;2.50;1.50;;;8.80;56.10;;;;;;5038263;28;20897;-62
2023/03/16 11:58:40;;;;;;;4.87;1.47;;;8.80;56.80;;;;;;5039344;28;20443;-61
2023/03/16 12:01:14;;;;;;;3.20;1.73;;;9.10;56.70;;;;;;5040058;28;20495;-62
2023/03/16 12:04:11;;;;;;;3.53;1.40;;;10.10;53.30;;;;;;5040526;28;20440;-63
2023/03/16 12:06:59;;;;;;;3.50;1.60;;;11.20;49.80;;;;;;5039245;28;20508;-64
2023/03/16 12:09:59;;;;;;;1.70;1.07;;;12.50;47.00;;;;;;5036862;28;20551;-62
2023/03/16 12:12:36;;;;;;;3.87;2.37;;;13.70;39.10;;;;;;5033908;28;20526;-64
2023/03/16 12:15:23;;;;;;;2.40;1.40;;;14.90;42.50;;;;;;5038447;28;20490;-64
2023/03/16 12:17:55;;;;;;;4.40;1.40;;;15.90;32.10;;;;;;5038493;28;20810;-63
2023/03/16 12:20:27;;;;;;;3.10;1.23;;;16.80;31.10;;;;;;5037760;28;20476;-63
2023/03/16 12:22:59;;;;;;;2.30;1.13;;;17.20;22.90;;;;;;5037906;28;20559;-63
2023/03/16 12:25:30;;;;;;;5.43;2.60;;;17.00;21.10;;;;;;5038194;28;20474;-63
2023/03/16 12:28:00;;;;;;;2.57;1.60;;;17.50;23.10;;;;;;5037759;28;20522;-65
2023/03/16 12:30:38;;;;;;;3.50;1.27;;;18.10;20.60;;;;;;5037327;28;20555;-64
2023/03/16 12:33:13;;;;;;;1.50;1.23;;;18.50;18.80;;;;;;5037576;28;20502;-63
2023/03/16 12:35:45;;;;;;;2.13;1.07;;;17.80;17.80;;;;;;5037330;28;20436;-65
2023/03/16 12:38:22;;;;;;;4.40;1.30;;;17.30;15.90;;;;;;5036871;28;20471;-63
2023/03/16 12:41:01;;;;;;;1.63;1.00;;;17.60;17.90;;;;;;5037057;28;20440;-63
2023/03/16 12:43:50;;;;;;;2.63;1.30;;;18.50;19.40;;;;;;5036595;28;20499;-62
2023/03/16 12:46:28;;;;;;;3.60;1.40;;;18.80;17.00;;;;;;5036922;28;20507;-62
2023/03/16 12:48:59;;;;;;;4.43;1.77;;;18.90;17.20;;;;;;5037064;28;20479;-65
2023/03/16 12:51:34;;;;;;;2.93;1.27;;;19.10;17.20;;;;;;5036845;28;20526;-63
2023/03/16 12:54:02;;;;;;;2.03;1.20;;;18.00;16.30;;;;;;5036845;28;20476;-63
2023/03/16 12:56:31;;;;;;;2.40;1.13;;;17.20;18.10;;;;;;5036748;28;20484;-62
2023/03/16 12:59:01;;;;;;;3.17;1.47;;;17.20;19.00;;;;;;5036997;28;20456;-64
2023/03/16 13:01:30;;;;;;;4.33;1.43;;;17.80;18.80;;;;;;5036539;28;20929;-63
2023/03/16 13:04:07;;;;;;;2.30;1.63;;;18.60;19.40;;;;;;5036586;28;20456;-63
2023/03/16 13:06:36;;;;;;;3.43;1.50;;;19.40;17.70;;;;;;5036534;28;20448;-61
2023/03/16 13:09:06;;;;;;;3.30;1.43;;;20.00;19.40;;;;;;5036489;28;20466;-62